Time;durP1;ratioP1;P1;durP2;ratioP2;P2;SDS_P1;SDS_P2;PMS_P1;PMS_P2;Temp;Humidity;BMP_temperature;BMP_pressure;BME280_temperature;BME280_humidity;BME280_pressure;Samples;Min_cycle;Max_cycle;Signal;HPM_P1;HPM_P2
2021/04/10 00:01:23;;;;;;;7.67;4.60;;;9.10;99.90;;;;;;5034716;28;20176;-75
2021/04/10 00:03:49;;;;;;;6.67;4.50;;;9.10;99.90;;;;;;5035512;28;20560;-75
2021/04/10 00:06:15;;;;;;;7.97;4.93;;;9.10;99.90;;;;;;5035604;28;20176;-74
2021/04/10 00:08:41;;;;;;;5.50;4.30;;;9.20;99.90;;;;;;5035338;28;20185;-75
2021/04/10 00:11:07;;;;;;;7.67;4.10;;;9.20;99.90;;;;;;5034012;28;20181;-75
2021/04/10 00:13:33;;;;;;;7.57;4.87;;;9.20;99.90;;;;;;5035665;28;20189;-75
2021/04/10 00:15:59;;;;;;;6.43;3.97;;;9.20;99.90;;;;;;5035220;28;20247;-75
2021/04/10 00:18:25;;;;;;;4.80;2.70;;;9.20;99.90;;;;;;5035048;28;20214;-75
2021/04/10 00:20:50;;;;;;;3.10;2.20;;;9.40;99.90;;;;;;5034134;28;20177;-75
2021/04/10 00:23:16;;;;;;;3.90;2.30;;;9.60;99.90;;;;;;5034788;28;20177;-74
2021/04/10 00:25:42;;;;;;;4.23;2.03;;;9.70;99.90;;;;;;5034868;28;20193;-75
2021/04/10 00:28:08;;;;;;;2.03;1.83;;;10.00;98.60;;;;;;5034831;28;20668;-75
2021/04/10 00:30:34;;;;;;;3.37;2.10;;;10.10;98.20;;;;;;5034888;28;20186;-75
2021/04/10 00:32:59;;;;;;;2.90;1.93;;;10.30;97.80;;;;;;5033625;28;20668;-75
2021/04/10 00:35:28;;;;;;;4.17;2.10;;;10.40;97.70;;;;;;5033472;28;20209;-75
2021/04/10 00:37:55;;;;;;;4.03;1.80;;;10.50;97.20;;;;;;5034753;28;20236;-75
2021/04/10 00:40:20;;;;;;;3.47;2.20;;;10.60;97.20;;;;;;5033463;28;20230;-76
2021/04/10 00:42:47;;;;;;;3.83;1.93;;;10.60;97.00;;;;;;5034674;28;20659;-74
2021/04/10 00:45:13;;;;;;;2.63;1.73;;;10.60;96.60;;;;;;5033400;28;20408;-74
2021/04/10 00:47:39;;;;;;;3.63;1.83;;;10.70;96.80;;;;;;5034398;28;20182;-74
2021/04/10 00:50:06;;;;;;;2.67;2.17;;;10.80;96.90;;;;;;5034855;28;20186;-74
2021/04/10 00:52:33;;;;;;;3.90;2.23;;;10.90;96.60;;;;;;5032891;28;20177;-74
2021/04/10 00:55:00;;;;;;;2.63;1.83;;;10.80;96.10;;;;;;5034447;28;20208;-75
2021/04/10 00:57:26;;;;;;;3.67;2.00;;;10.80;96.60;;;;;;5034343;28;20186;-75
2021/04/10 00:59:51;;;;;;;4.57;2.60;;;10.70;96.30;;;;;;5033035;28;20169;-75
2021/04/10 01:02:17;;;;;;;3.50;2.30;;;10.70;96.50;;;;;;5034498;28;20637;-75
2021/04/10 01:04:43;;;;;;;4.27;2.17;;;10.70;96.80;;;;;;5034360;28;20197;-75
2021/04/10 01:07:10;;;;;;;4.40;1.80;;;10.80;96.40;;;;;;5034073;28;20178;-74
2021/04/10 01:09:36;;;;;;;3.77;2.10;;;10.80;96.20;;;;;;5034394;28;20170;-74
2021/04/10 01:12:22;;;;;;;4.43;2.30;;;10.70;96.10;;;;;;5034322;28;20664;-74
2021/04/10 01:14:57;;;;;;;5.03;2.57;;;10.70;96.20;;;;;;5034232;28;20194;-75
2021/04/10 01:17:28;;;;;;;4.80;2.20;;;10.70;96.60;;;;;;5032750;28;20182;-74
2021/04/10 01:20:28;;;;;;;4.57;2.07;;;10.60;97.00;;;;;;5033447;28;20682;-75
2021/04/10 01:23:31;;;;;;;3.60;2.10;;;10.50;97.30;;;;;;5032706;28;20188;-74
2021/04/10 01:26:13;;;;;;;2.73;2.00;;;10.40;97.70;;;;;;5032670;28;20186;-75
2021/04/10 01:28:58;;;;;;;2.97;2.13;;;10.30;98.10;;;;;;5033864;28;20178;-75
2021/04/10 01:31:33;;;;;;;4.00;2.40;;;10.30;97.90;;;;;;5033313;28;20605;-75
2021/04/10 01:34:04;;;;;;;2.20;2.00;;;10.20;98.30;;;;;;5032439;28;20244;-74
2021/04/10 01:36:33;;;;;;;3.30;2.20;;;10.10;98.40;;;;;;5034203;28;20269;-74
2021/04/10 01:39:01;;;;;;;3.83;2.60;;;10.10;99.00;;;;;;5033574;28;20197;-74
2021/04/10 01:41:28;;;;;;;3.80;2.23;;;10.00;99.50;;;;;;5033831;28;20178;-74
2021/04/10 01:43:54;;;;;;;5.00;2.20;;;9.80;99.90;;;;;;5033484;28;20212;-75
2021/04/10 01:46:22;;;;;;;3.23;2.67;;;9.60;99.90;;;;;;5015165;28;20240;-75
2021/04/10 01:48:48;;;;;;;5.20;2.40;;;9.40;99.90;;;;;;5030355;28;20185;-75
2021/04/10 01:51:16;;;;;;;7.13;2.83;;;9.20;99.90;;;;;;5031495;28;20210;-76
2021/04/10 01:53:42;;;;;;;5.17;2.30;;;9.00;99.90;;;;;;5031396;28;20244;-75
2021/04/10 01:56:10;;;;;;;5.37;2.50;;;8.80;99.90;;;;;;5033373;28;20654;-74
2021/04/10 01:58:38;;;;;;;4.93;2.60;;;8.80;99.90;;;;;;5033276;28;20209;-75
2021/04/10 02:01:05;;;;;;;8.13;2.70;;;8.70;99.90;;;;;;5032488;28;20178;-75
2021/04/10 02:03:32;;;;;;;8.50;2.40;;;8.60;99.90;;;;;;5033315;28;20174;-74
2021/04/10 02:05:59;;;;;;;2.63;2.30;;;8.60;99.90;;;;;;5031971;28;20184;-75
2021/04/10 02:08:25;;;;;;;2.77;2.20;;;8.60;99.90;;;;;;5033221;28;20179;-74
2021/04/10 02:10:53;;;;;;;5.57;2.83;;;8.50;99.90;;;;;;5031879;28;20187;-75
2021/04/10 02:13:21;;;;;;;3.40;2.63;;;8.50;99.90;;;;;;5033446;28;20187;-74
2021/04/10 02:15:50;;;;;;;3.87;2.37;;;8.40;99.90;;;;;;5031908;28;20186;-74
2021/04/10 02:18:18;;;;;;;5.00;2.70;;;8.30;99.90;;;;;;5032975;28;20678;-75
2021/04/10 02:20:44;;;;;;;5.00;2.80;;;8.20;99.90;;;;;;5031899;28;20184;-74
2021/04/10 02:23:11;;;;;;;6.70;2.53;;;8.10;99.90;;;;;;5033003;28;20183;-75
2021/04/10 02:25:37;;;;;;;4.30;2.67;;;8.00;99.90;;;;;;5060702;22;20223;-75
2021/04/10 02:28:03;;;;;;;5.43;2.87;;;7.90;99.90;;;;;;5039367;28;20189;-74
2021/04/10 02:30:28;;;;;;;4.80;2.93;;;7.90;99.90;;;;;;5042154;28;20177;-75
2021/04/10 02:33:00;;;;;;;4.87;2.47;;;7.80;99.90;;;;;;5049449;28;20521;-75
2021/04/10 02:35:34;;;;;;;3.57;2.70;;;7.80;99.90;;;;;;5028827;28;20230;-74
2021/04/10 02:38:01;;;;;;;5.00;2.90;;;7.80;99.90;;;;;;5020555;28;20290;-75
2021/04/10 02:40:34;;;;;;;4.23;2.50;;;7.80;99.90;;;;;;5020441;28;20202;-74
2021/04/10 02:43:02;;;;;;;4.00;2.70;;;7.70;99.90;;;;;;5022604;28;20176;-76
2021/04/10 02:45:28;;;;;;;5.57;2.70;;;7.60;99.90;;;;;;5020066;28;20211;-76
2021/04/10 02:47:59;;;;;;;7.67;2.70;;;7.50;99.90;;;;;;5020332;28;20578;-76
2021/04/10 02:50:27;;;;;;;3.67;2.77;;;7.50;99.90;;;;;;5020574;28;20183;-76
2021/04/10 02:52:56;;;;;;;4.70;2.60;;;7.50;99.90;;;;;;5020324;28;20182;-76
2021/04/10 02:55:33;;;;;;;3.40;2.70;;;7.50;99.90;;;;;;5020328;28;20741;-76
2021/04/10 02:58:05;;;;;;;5.37;3.00;;;7.40;99.90;;;;;;5020354;28;20191;-76
2021/04/10 03:00:32;;;;;;;4.23;2.70;;;7.40;99.90;;;;;;5019867;28;20171;-76
2021/04/10 03:02:58;;;;;;;4.50;3.10;;;7.40;99.90;;;;;;5020362;28;20222;-77
2021/04/10 03:05:24;;;;;;;6.23;2.70;;;7.40;99.90;;;;;;5019919;28;20190;-74
2021/04/10 03:07:52;;;;;;;5.67;2.63;;;7.30;99.90;;;;;;5020336;28;20245;-76
2021/04/10 03:10:18;;;;;;;4.37;2.50;;;7.30;99.90;;;;;;5020426;28;20241;-76
2021/04/10 03:12:45;;;;;;;5.47;2.73;;;7.30;99.90;;;;;;5020416;28;20178;-76
2021/04/10 03:15:16;;;;;;;4.53;2.90;;;7.30;99.90;;;;;;5021287;28;20700;-76
2021/04/10 03:17:43;;;;;;;5.23;2.67;;;7.30;99.90;;;;;;5020212;28;20205;-76
2021/04/10 03:20:15;;;;;;;8.03;3.20;;;7.30;99.90;;;;;;5018944;28;20172;-76
2021/04/10 03:22:42;;;;;;;5.27;3.23;;;7.20;99.90;;;;;;5020408;28;20171;-76
2021/04/10 03:25:10;;;;;;;3.63;2.70;;;7.10;99.90;;;;;;5020989;28;20206;-76
2021/04/10 03:27:35;;;;;;;7.93;2.87;;;7.10;99.90;;;;;;5019815;28;20543;-75
2021/04/10 03:30:02;;;;;;;3.30;2.63;;;7.00;99.90;;;;;;5002296;28;20262;-76
2021/04/10 03:32:28;;;;;;;3.27;2.40;;;6.90;99.90;;;;;;5022170;28;20209;-76
2021/04/10 03:34:55;;;;;;;7.57;2.73;;;6.90;99.90;;;;;;5018468;28;20225;-76
2021/04/10 03:37:21;;;;;;;4.70;2.60;;;6.80;99.90;;;;;;5015550;28;20171;-76
2021/04/10 03:39:47;;;;;;;7.87;2.90;;;6.80;99.90;;;;;;5016667;28;20217;-76
2021/04/10 03:42:13;;;;;;;4.37;2.90;;;6.70;99.90;;;;;;5016741;28;20265;-76
2021/04/10 03:44:39;;;;;;;8.53;3.13;;;6.90;99.90;;;;;;5016690;28;20745;-76
2021/04/10 03:47:05;;;;;;;8.30;2.70;;;7.00;99.90;;;;;;5015395;28;20579;-76
2021/04/10 03:49:30;;;;;;;3.63;2.83;;;6.90;99.90;;;;;;5014876;28;20179;-76
2021/04/10 03:51:56;;;;;;;5.43;2.80;;;6.90;99.90;;;;;;5015455;28;20175;-76
2021/04/10 03:54:22;;;;;;;4.57;2.70;;;6.90;99.90;;;;;;5016482;28;20650;-75
2021/04/10 03:56:48;;;;;;;3.77;3.07;;;6.90;99.90;;;;;;5015450;28;20175;-76
2021/04/10 03:59:13;;;;;;;5.03;2.87;;;6.90;99.90;;;;;;5016187;28;20192;-76
2021/04/10 04:01:39;;;;;;;3.67;2.50;;;6.80;99.90;;;;;;5012067;28;20177;-76
2021/04/10 04:04:06;;;;;;;3.93;2.80;;;6.80;99.90;;;;;;5008620;28;20221;-76
2021/04/10 04:06:31;;;;;;;8.23;3.00;;;6.80;99.90;;;;;;5013076;28;20217;-76
2021/04/10 04:08:58;;;;;;;4.80;2.87;;;6.70;99.90;;;;;;5014884;28;20171;-76
2021/04/10 04:11:25;;;;;;;4.53;3.47;;;6.70;99.90;;;;;;4997485;28;20183;-76
2021/04/10 04:13:51;;;;;;;6.50;3.20;;;6.70;99.90;;;;;;5016001;28;20207;-76
2021/04/10 04:16:18;;;;;;;4.53;2.90;;;6.70;99.90;;;;;;5015293;28;20592;-76
2021/04/10 04:18:44;;;;;;;4.93;3.37;;;6.60;99.90;;;;;;5015965;28;20252;-76
2021/04/10 04:21:09;;;;;;;2.97;2.67;;;6.70;99.90;;;;;;5014677;28;20172;-75
2021/04/10 04:23:35;;;;;;;6.07;3.07;;;6.80;99.90;;;;;;5015847;28;20175;-76
2021/04/10 04:26:00;;;;;;;9.10;3.20;;;6.70;99.90;;;;;;5015490;28;20677;-76
2021/04/10 04:28:27;;;;;;;9.50;4.50;;;6.60;99.90;;;;;;5015826;28;20176;-75
2021/04/10 04:30:53;;;;;;;8.87;4.47;;;6.60;99.90;;;;;;5015042;28;20728;-75
2021/04/10 04:33:19;;;;;;;12.33;5.43;;;6.60;99.90;;;;;;4997133;28;20183;-75
2021/04/10 04:35:45;;;;;;;13.07;5.40;;;6.60;99.90;;;;;;5008949;28;20632;-75
2021/04/10 04:38:11;;;;;;;12.80;4.33;;;6.60;99.90;;;;;;4997757;28;20600;-76
2021/04/10 04:40:38;;;;;;;7.63;4.20;;;6.60;99.90;;;;;;4995755;28;20577;-76
2021/04/10 04:43:04;;;;;;;9.53;5.00;;;6.70;99.90;;;;;;4999010;28;20194;-76
2021/04/10 04:45:30;;;;;;;7.83;4.67;;;6.70;99.90;;;;;;5015263;28;20234;-76
2021/04/10 04:47:57;;;;;;;9.30;5.30;;;6.70;99.90;;;;;;5015169;28;20183;-76
2021/04/10 04:50:23;;;;;;;7.53;4.73;;;6.80;99.90;;;;;;5011516;28;20210;-76
2021/04/10 04:52:48;;;;;;;7.83;4.80;;;6.70;99.90;;;;;;5001379;28;20695;-76
2021/04/10 04:55:14;;;;;;;10.77;4.80;;;6.70;99.90;;;;;;5015255;28;20203;-76
2021/04/10 04:57:40;;;;;;;9.33;4.53;;;6.70;99.90;;;;;;4994691;28;20206;-76
2021/04/10 05:00:06;;;;;;;9.70;4.07;;;6.80;99.90;;;;;;5013895;28;20220;-76
2021/04/10 05:02:32;;;;;;;10.70;4.50;;;6.80;99.90;;;;;;5014038;28;20207;-76
2021/04/10 05:04:58;;;;;;;10.73;4.70;;;6.90;99.90;;;;;;5013593;28;20231;-76
2021/04/10 05:07:24;;;;;;;11.33;5.50;;;6.90;99.90;;;;;;4997552;28;20198;-76
2021/04/10 05:09:50;;;;;;;9.07;5.00;;;7.00;99.90;;;;;;5004026;28;20637;-76
2021/04/10 05:12:16;;;;;;;13.80;5.20;;;7.00;99.90;;;;;;5013352;28;20178;-76
2021/04/10 05:14:41;;;;;;;11.17;4.63;;;7.00;99.90;;;;;;5013850;28;20257;-76
2021/04/10 05:17:07;;;;;;;10.87;5.33;;;6.90;99.90;;;;;;5011403;28;20179;-76
2021/04/10 05:19:33;;;;;;;10.73;5.23;;;6.90;99.90;;;;;;5013238;28;20290;-76
2021/04/10 05:21:59;;;;;;;10.13;4.80;;;7.00;99.90;;;;;;5012259;28;20179;-75
2021/04/10 05:24:25;;;;;;;8.23;4.87;;;7.00;99.90;;;;;;5021501;22;20213;-75
2021/04/10 05:26:50;;;;;;;10.13;4.93;;;7.00;99.90;;;;;;5048676;28;20356;-76
2021/04/10 05:29:16;;;;;;;7.27;4.50;;;7.10;99.90;;;;;;5055407;28;20668;-76
2021/04/10 05:31:42;;;;;;;12.07;4.37;;;7.20;99.90;;;;;;5052263;28;20176;-76
2021/04/10 05:34:08;;;;;;;12.07;4.73;;;7.30;99.90;;;;;;5051171;28;20801;-76
2021/04/10 05:36:34;;;;;;;11.13;4.50;;;7.50;99.90;;;;;;5015331;28;20230;-76
2021/04/10 05:39:00;;;;;;;12.53;4.83;;;7.50;99.90;;;;;;5034278;28;20594;-76
2021/04/10 05:41:28;;;;;;;8.23;5.07;;;7.60;99.90;;;;;;5041459;22;20276;-77
2021/04/10 05:43:54;;;;;;;8.67;4.57;;;7.70;99.90;;;;;;5032442;28;20253;-77
2021/04/10 05:46:20;;;;;;;8.47;4.70;;;7.80;99.90;;;;;;5028433;28;20178;-76
2021/04/10 05:48:45;;;;;;;6.30;3.97;;;7.90;99.90;;;;;;5026505;28;20566;-77
2021/04/10 05:51:11;;;;;;;11.87;4.23;;;7.90;99.90;;;;;;5032298;28;20203;-76
2021/04/10 05:53:41;;;;;;;11.00;3.93;;;8.00;99.90;;;;;;5031979;28;20249;-77
2021/04/10 05:56:07;;;;;;;7.57;3.00;;;8.20;99.90;;;;;;5033252;28;20174;-76
2021/04/10 05:58:32;;;;;;;7.73;2.70;;;8.20;99.90;;;;;;5024691;28;20664;-78
2021/04/10 06:00:58;;;;;;;6.63;2.47;;;8.40;99.90;;;;;;5019656;28;20658;-76
2021/04/10 06:03:25;;;;;;;4.00;2.63;;;8.50;99.90;;;;;;5033492;28;20189;-77
2021/04/10 06:05:51;;;;;;;6.37;3.13;;;8.60;99.90;;;;;;5021859;28;20680;-76
2021/04/10 06:08:16;;;;;;;9.67;4.03;;;8.60;99.90;;;;;;5033218;28;20179;-76
2021/04/10 06:10:42;;;;;;;7.80;4.07;;;8.80;99.90;;;;;;5031879;28;20201;-76
2021/04/10 06:13:09;;;;;;;5.23;3.03;;;8.80;99.90;;;;;;5012243;28;20193;-77
2021/04/10 06:15:35;;;;;;;4.93;2.10;;;8.90;99.90;;;;;;5019980;28;20185;-77
2021/04/10 06:18:01;;;;;;;4.67;2.50;;;8.90;99.90;;;;;;5031956;28;20213;-77
2021/04/10 06:20:27;;;;;;;5.37;1.93;;;9.00;99.90;;;;;;5013952;28;20207;-78
2021/04/10 06:22:53;;;;;;;4.43;1.97;;;9.00;99.90;;;;;;5019984;28;20650;-76
2021/04/10 06:25:19;;;;;;;3.23;2.00;;;9.10;99.90;;;;;;4998163;28;20210;-77
2021/04/10 06:27:45;;;;;;;2.67;1.60;;;9.10;99.90;;;;;;5013713;28;20310;-75
2021/04/10 06:30:11;;;;;;;3.27;1.80;;;9.20;99.90;;;;;;5013877;28;20231;-77
2021/04/10 06:32:37;;;;;;;6.30;1.93;;;9.20;99.90;;;;;;4984565;28;20611;-77
2021/04/10 06:35:04;;;;;;;3.27;1.60;;;9.30;99.90;;;;;;5012351;28;20246;-77
2021/04/10 06:37:30;;;;;;;4.63;1.93;;;9.30;99.90;;;;;;5011137;28;20196;-77
2021/04/10 06:39:57;;;;;;;2.23;1.50;;;9.30;99.90;;;;;;5011205;28;20282;-77
2021/04/10 06:42:22;;;;;;;5.30;1.57;;;9.30;99.90;;;;;;5022837;28;20267;-77
2021/04/10 06:44:48;;;;;;;9.90;1.90;;;9.30;99.90;;;;;;5032765;28;20167;-77
2021/04/10 06:47:20;;;;;;;5.20;1.40;;;9.40;99.90;;;;;;5033035;28;20204;-76
2021/04/10 06:49:46;;;;;;;18.67;2.27;;;9.30;99.90;;;;;;5032952;28;20215;-77
2021/04/10 06:52:16;;;;;;;4.43;2.03;;;9.50;99.90;;;;;;5032807;28;20267;-76
2021/04/10 06:54:45;;;;;;;5.50;1.63;;;9.50;99.90;;;;;;5032905;28;20179;-76
2021/04/10 06:57:14;;;;;;;6.80;1.80;;;9.60;99.90;;;;;;5031797;28;20621;-76
2021/04/10 06:59:49;;;;;;;6.93;1.60;;;9.60;99.90;;;;;;5018559;28;20198;-77
2021/04/10 07:02:15;;;;;;;5.33;1.53;;;9.70;99.90;;;;;;5009184;28;20201;-76
2021/04/10 07:04:41;;;;;;;4.37;1.60;;;9.80;99.90;;;;;;5025837;28;20183;-76
2021/04/10 07:07:08;;;;;;;7.37;2.00;;;9.80;99.90;;;;;;5032931;28;20180;-76
2021/04/10 07:09:35;;;;;;;487.70;56.43;;;9.80;99.90;;;;;;5026338;28;20213;-77
2021/04/10 07:12:03;;;;;;;360.20;30.93;;;9.90;99.90;;;;;;5019336;28;20611;-76
2021/04/10 07:14:29;;;;;;;142.40;10.27;;;9.90;99.90;;;;;;5024849;28;20201;-77
2021/04/10 07:16:56;;;;;;;262.97;15.83;;;9.90;99.90;;;;;;5027335;28;20592;-77
2021/04/10 07:19:24;;;;;;;54.53;5.30;;;9.90;99.90;;;;;;5036304;28;20205;-76
2021/04/10 07:22:07;;;;;;;70.53;6.10;;;9.90;99.90;;;;;;5034993;28;20212;-79
2021/04/10 07:24:45;;;;;;;46.03;5.20;;;10.00;99.90;;;;;;5026648;28;20178;-76
2021/04/10 07:27:20;;;;;;;30.67;4.27;;;10.00;99.90;;;;;;5018197;28;20184;-77
2021/04/10 07:29:47;;;;;;;16.83;3.20;;;10.00;99.90;;;;;;5023184;28;20543;-76
2021/04/10 07:32:33;;;;;;;112.37;7.30;;;10.10;99.90;;;;;;5031538;28;20185;-77
2021/04/10 07:35:10;;;;;;;35.70;3.37;;;10.10;99.90;;;;;;5023159;28;20177;-77
2021/04/10 07:37:38;;;;;;;131.57;8.87;;;10.10;99.90;;;;;;5033636;28;20203;-76
2021/04/10 07:40:06;;;;;;;1729.67;283.27;;;10.00;99.90;;;;;;5034295;28;20197;-77
2021/04/10 07:42:39;;;;;;;512.33;62.23;;;10.10;99.90;;;;;;5029974;28;20184;-75
2021/04/10 07:45:22;;;;;;;728.97;99.80;;;10.00;99.90;;;;;;5036134;28;20184;-75
2021/04/10 07:50:26;;;;;;;214.57;19.63;;;10.20;99.90;;;;;;5388854;22;20251;-77
2021/04/10 07:52:52;;;;;;;230.63;20.23;;;10.20;99.90;;;;;;5039419;28;20185;-78
2021/04/10 07:55:42;;;;;;;124.53;9.03;;;10.20;99.90;;;;;;5041463;28;20186;-78
2021/04/10 07:58:37;;;;;;;271.03;17.73;;;10.20;99.90;;;;;;5040126;28;20212;-78
2021/04/10 08:01:08;;;;;;;22.43;2.97;;;10.20;99.90;;;;;;5020284;28;20194;-78
2021/04/10 08:03:35;;;;;;;42.23;3.70;;;10.20;99.90;;;;;;5015802;28;20668;-76
2021/04/10 08:06:04;;;;;;;29.43;3.30;;;10.20;99.90;;;;;;5014049;28;20512;-76
2021/04/10 08:08:30;;;;;;;54.70;5.23;;;10.30;99.90;;;;;;5013469;28;20187;-77
2021/04/10 08:11:03;;;;;;;27.57;3.07;;;10.30;99.90;;;;;;5010929;28;20553;-76
2021/04/10 08:13:29;;;;;;;219.93;10.73;;;10.40;99.90;;;;;;4993069;28;20244;-76
2021/04/10 08:16:15;;;;;;;83.77;5.23;;;10.50;99.90;;;;;;4998410;28;20193;-77
2021/04/10 08:18:45;;;;;;;3.90;1.77;;;10.50;99.90;;;;;;4998820;28;20202;-77
2021/04/10 08:21:13;;;;;;;37.40;3.77;;;10.50;99.90;;;;;;5010909;28;20297;-77
2021/04/10 08:23:39;;;;;;;5.57;1.80;;;10.50;99.90;;;;;;5011923;28;20532;-77
2021/04/10 08:26:06;;;;;;;6.63;1.57;;;10.70;99.90;;;;;;5013376;28;20181;-77
2021/04/10 08:28:33;;;;;;;82.50;7.07;;;10.80;99.90;;;;;;5014011;28;20218;-78
2021/04/10 08:31:00;;;;;;;8.97;2.33;;;10.90;99.90;;;;;;5013554;28;20573;-77
2021/04/10 08:33:27;;;;;;;55.60;3.70;;;10.90;99.90;;;;;;5012946;28;20743;-79
2021/04/10 08:35:55;;;;;;;121.10;7.13;;;10.90;99.90;;;;;;5013898;28;20211;-77
2021/04/10 08:38:23;;;;;;;30.80;3.67;;;11.00;99.90;;;;;;5014238;28;20564;-76
2021/04/10 08:40:52;;;;;;;15.37;2.50;;;11.10;99.90;;;;;;5012327;28;20799;-78
2021/04/10 08:43:25;;;;;;;1999.90;865.50;;;11.20;99.90;;;;;;5013309;28;20202;-77
2021/04/10 08:45:52;;;;;;;475.80;55.23;;;11.30;99.90;;;;;;5007796;28;20181;-77
2021/04/10 08:48:20;;;;;;;46.13;5.57;;;11.40;99.90;;;;;;5012490;28;20199;-77
2021/04/10 08:50:47;;;;;;;141.20;18.35;;;11.50;99.90;;;;;;5010098;28;20410;-76
2021/04/10 08:53:20;;;;;;;563.27;62.53;;;11.50;99.90;;;;;;4991412;28;652190;-77
2021/04/10 08:55:47;;;;;;;438.23;43.27;;;11.60;99.90;;;;;;5013065;28;20341;-76
2021/04/10 08:58:32;;;;;;;70.57;9.47;;;11.60;99.90;;;;;;5014504;28;20211;-77
2021/04/10 09:01:07;;;;;;;63.40;4.07;;;11.70;99.90;;;;;;5013526;28;20252;-77
2021/04/10 09:03:45;;;;;;;233.60;14.70;;;11.80;99.90;;;;;;5011722;28;20313;-76
2021/04/10 09:06:15;;;;;;;40.57;3.07;;;11.90;99.90;;;;;;5009361;28;20183;-75
2021/04/10 09:08:41;;;;;;;24.60;3.33;;;11.90;99.90;;;;;;5011664;28;20183;-75
2021/04/10 09:11:09;;;;;;;96.60;5.57;;;12.00;99.90;;;;;;5012691;28;20198;-76
2021/04/10 09:13:46;;;;;;;593.90;34.07;;;12.10;99.90;;;;;;5013877;28;20212;-76
2021/04/10 09:16:27;;;;;;;20.23;2.93;;;12.30;99.90;;;;;;5007219;28;20263;-76
2021/04/10 09:19:05;;;;;;;265.47;15.60;;;12.30;99.90;;;;;;5009843;28;20195;-77
2021/04/10 09:21:50;;;;;;;1999.90;202.50;;;12.30;99.90;;;;;;5011917;28;20230;-77
2021/04/10 09:24:29;;;;;;;1074.70;73.70;;;12.50;99.90;;;;;;5013322;28;20172;-76
2021/04/10 09:27:00;;;;;;;101.70;7.10;;;12.50;99.90;;;;;;5012870;28;20179;-76
2021/04/10 09:29:27;;;;;;;1044.47;78.53;;;12.60;99.90;;;;;;5012329;28;20616;-77
2021/04/10 09:31:58;;;;;;;422.97;22.20;;;12.60;99.90;;;;;;5012907;28;20187;-76
2021/04/10 09:34:43;;;;;;;203.13;12.57;;;12.70;99.90;;;;;;5008395;28;20278;-76
2021/04/10 09:37:10;;;;;;;303.57;20.03;;;12.70;99.90;;;;;;5027506;28;20203;-75
2021/04/10 09:39:57;;;;;;;1432.50;101.77;;;12.80;99.90;;;;;;5012194;28;20242;-75
2021/04/10 09:42:55;;;;;;;84.67;7.97;;;12.80;99.90;;;;;;5012647;28;20262;-75
2021/04/10 09:45:23;;;;;;;61.77;5.67;;;12.80;99.90;;;;;;5011447;28;20181;-76
2021/04/10 09:48:04;;;;;;;350.03;18.37;;;12.90;99.90;;;;;;5006132;28;20175;-75
2021/04/10 09:50:36;;;;;;;47.90;4.93;;;13.00;99.90;;;;;;5012183;28;20222;-77
2021/04/10 09:53:08;;;;;;;207.73;13.17;;;13.10;99.90;;;;;;5011156;28;20194;-76
2021/04/10 09:55:38;;;;;;;12.67;2.47;;;13.30;99.90;;;;;;5010943;28;20171;-75
2021/04/10 09:58:12;;;;;;;13.30;2.27;;;13.50;99.90;;;;;;5010185;28;20207;-75
2021/04/10 10:00:47;;;;;;;332.03;30.47;;;13.40;99.90;;;;;;5013394;28;20198;-76
2021/04/10 10:03:17;;;;;;;1643.43;201.43;;;13.40;99.90;;;;;;5012992;28;20264;-75
2021/04/10 10:05:46;;;;;;;424.63;39.17;;;13.60;99.90;;;;;;5013097;28;20171;-76
2021/04/10 10:08:14;;;;;;;20.97;2.50;;;13.60;99.90;;;;;;5012210;28;20190;-76
2021/04/10 10:10:45;;;;;;;41.93;3.57;;;13.70;99.90;;;;;;5013347;28;20224;-75
2021/04/10 10:13:15;;;;;;;416.23;22.80;;;13.90;99.90;;;;;;5011745;28;20268;-72
2021/04/10 10:15:42;;;;;;;45.73;4.10;;;14.10;99.90;;;;;;5012719;28;20241;-71
2021/04/10 10:18:25;;;;;;;25.37;2.73;;;14.10;99.90;;;;;;5013093;28;20221;-71
2021/04/10 10:21:09;;;;;;;9.63;1.97;;;14.10;99.90;;;;;;5012093;28;20297;-73
2021/04/10 10:23:40;;;;;;;3.77;2.10;;;14.10;99.90;;;;;;5012951;28;20203;-75
2021/04/10 10:26:12;;;;;;;8.00;2.17;;;14.00;99.90;;;;;;5013573;28;20567;-75
2021/04/10 10:28:40;;;;;;;7.10;2.37;;;13.90;99.90;;;;;;5013219;28;20215;-74
2021/04/10 10:31:09;;;;;;;7.40;2.20;;;14.10;99.90;;;;;;5017186;28;20204;-74
2021/04/10 10:33:36;;;;;;;2.43;1.73;;;14.00;99.90;;;;;;5021067;28;20667;-76
2021/04/10 10:36:03;;;;;;;7.50;2.67;;;14.20;99.90;;;;;;5013326;28;20175;-76
2021/04/10 10:38:36;;;;;;;4.13;2.10;;;14.30;99.90;;;;;;5012856;28;20204;-75
2021/04/10 10:41:03;;;;;;;4.63;1.90;;;14.50;99.90;;;;;;5011756;28;20196;-76
2021/04/10 10:43:29;;;;;;;5.47;2.10;;;14.60;99.90;;;;;;5011225;28;20190;-75
2021/04/10 10:46:00;;;;;;;6.73;2.03;;;14.60;99.90;;;;;;5013778;28;20175;-75
2021/04/10 10:48:40;;;;;;;2.17;1.30;;;14.60;99.90;;;;;;5015362;28;20239;-76
2021/04/10 10:51:11;;;;;;;3.13;1.63;;;14.80;99.90;;;;;;5016063;28;20620;-76
2021/04/10 10:53:40;;;;;;;5.80;2.00;;;14.90;99.90;;;;;;5015663;28;20199;-75
2021/04/10 10:56:25;;;;;;;3.40;1.93;;;15.10;99.90;;;;;;5017073;28;20178;-75
2021/04/10 10:59:03;;;;;;;9.13;3.53;;;15.10;99.90;;;;;;5022815;28;20555;-75
2021/04/10 11:01:42;;;;;;;3.57;1.77;;;15.30;99.90;;;;;;5023084;28;20174;-75
2021/04/10 11:04:10;;;;;;;4.73;2.00;;;15.50;99.90;;;;;;5009883;28;20177;-76
2021/04/10 11:06:46;;;;;;;11.70;1.83;;;15.60;99.90;;;;;;5024925;28;20636;-76
2021/04/10 11:09:24;;;;;;;724.57;80.07;;;15.60;99.90;;;;;;5003773;28;20207;-75
2021/04/10 11:11:52;;;;;;;1999.90;518.50;;;15.40;99.90;;;;;;5031159;28;20607;-76
2021/04/10 11:14:21;;;;;;;741.20;61.63;;;15.40;99.90;;;;;;5015264;28;20190;-77
2021/04/10 11:16:51;;;;;;;398.83;29.47;;;15.40;99.70;;;;;;5015767;28;20576;-74
2021/04/10 11:19:31;;;;;;;26.37;3.37;;;15.20;99.90;;;;;;5019109;28;20202;-75
2021/04/10 11:21:59;;;;;;;491.23;55.37;;;15.50;99.90;;;;;;5009573;28;20664;-76
2021/04/10 11:24:36;;;;;;;187.27;15.87;;;15.80;99.80;;;;;;5014625;28;20179;-74
2021/04/10 11:27:19;;;;;;;115.93;11.03;;;15.90;99.00;;;;;;5016294;28;20254;-76
2021/04/10 11:30:00;;;;;;;63.07;5.63;;;16.20;99.80;;;;;;5014257;28;20202;-74
2021/04/10 11:32:42;;;;;;;38.03;3.93;;;15.90;99.00;;;;;;5014866;28;20179;-75
2021/04/10 11:35:28;;;;;;;13.20;1.90;;;16.10;96.70;;;;;;5016295;28;20171;-74
2021/04/10 11:37:56;;;;;;;1300.20;142.33;;;16.10;96.20;;;;;;5005759;28;20683;-75
2021/04/10 11:40:34;;;;;;;99.17;8.30;;;16.10;95.00;;;;;;5016480;28;20195;-75
2021/04/10 11:43:11;;;;;;;202.10;15.30;;;16.30;95.70;;;;;;5014755;28;20179;-75
2021/04/10 11:45:47;;;;;;;34.17;3.57;;;16.10;95.60;;;;;;5016054;28;20232;-75
2021/04/10 11:48:19;;;;;;;90.37;5.67;;;16.20;96.90;;;;;;4998692;28;20590;-76
2021/04/10 11:50:53;;;;;;;5.70;1.53;;;16.30;96.40;;;;;;5008034;28;20310;-76
2021/04/10 11:53:34;;;;;;;25.33;2.80;;;16.60;96.40;;;;;;5014070;28;20203;-76
2021/04/10 11:56:00;;;;;;;31.00;2.70;;;16.80;95.40;;;;;;5015993;28;20213;-77
2021/04/10 11:58:34;;;;;;;67.20;5.47;;;16.80;94.90;;;;;;5013604;28;20700;-75
2021/04/10 12:01:08;;;;;;;3.77;1.93;;;16.80;94.90;;;;;;5006357;28;20632;-76
2021/04/10 12:03:54;;;;;;;219.83;13.63;;;16.80;95.50;;;;;;5015739;28;20237;-75
2021/04/10 12:06:27;;;;;;;6.70;1.70;;;17.10;95.70;;;;;;5005389;28;20214;-76
2021/04/10 12:08:53;;;;;;;32.60;3.37;;;17.00;95.10;;;;;;5015362;28;20179;-75
2021/04/10 12:11:22;;;;;;;11.67;1.87;;;17.10;96.40;;;;;;5015587;28;20194;-76
2021/04/10 12:13:49;;;;;;;6.27;2.47;;;17.10;96.00;;;;;;5015322;28;20179;-75
2021/04/10 12:16:14;;;;;;;6.70;2.10;;;17.30;95.80;;;;;;5014398;28;20194;-76
2021/04/10 12:18:40;;;;;;;12.47;2.33;;;17.40;96.80;;;;;;5014173;28;20277;-77
2021/04/10 12:21:06;;;;;;;11.80;2.13;;;17.70;96.10;;;;;;5015656;28;20217;-76
2021/04/10 12:23:31;;;;;;;7.20;1.80;;;17.70;94.50;;;;;;5014497;28;20693;-81
2021/04/10 12:25:57;;;;;;;35.93;3.03;;;17.70;94.50;;;;;;5014385;28;20237;-77
2021/04/10 12:28:24;;;;;;;65.83;4.17;;;17.40;94.10;;;;;;5010577;28;20182;-74
2021/04/10 12:30:50;;;;;;;74.77;5.37;;;17.30;93.00;;;;;;5013997;28;20195;-75
2021/04/10 12:33:16;;;;;;;57.53;3.90;;;17.30;93.10;;;;;;5006746;28;20179;-75
2021/04/10 12:35:42;;;;;;;25.97;2.30;;;16.90;93.10;;;;;;5015427;28;20198;-75
2021/04/10 12:38:07;;;;;;;35.87;3.87;;;17.00;93.70;;;;;;5014930;28;20229;-75
2021/04/10 12:40:33;;;;;;;15.60;1.70;;;17.10;93.40;;;;;;5014760;28;20206;-76
2021/04/10 12:42:59;;;;;;;21.40;2.30;;;17.00;92.90;;;;;;5013199;28;20190;-76
2021/04/10 12:45:25;;;;;;;118.27;8.87;;;17.00;93.30;;;;;;5013028;28;20178;-75
2021/04/10 12:47:51;;;;;;;429.90;31.07;;;17.20;93.80;;;;;;5011634;28;20175;-76
2021/04/10 12:50:19;;;;;;;133.27;10.03;;;17.30;94.00;;;;;;5014162;28;20680;-76
2021/04/10 12:52:45;;;;;;;4.50;1.70;;;17.50;93.80;;;;;;5009264;28;20199;-76
2021/04/10 12:55:12;;;;;;;28.33;3.00;;;17.60;93.30;;;;;;5003476;28;20236;-76
2021/04/10 12:57:37;;;;;;;29.80;3.03;;;17.80;93.90;;;;;;5007731;28;20672;-77